sensor_id;sensor_type;location;lat;lon;timestamp;P1;durP1;ratioP1;P2;durP2;ratioP2
20365;SDS011;10341;49.894;8.822;2023-08-24T00:03:16;6.03;;;5.05;;
20365;SDS011;10341;49.894;8.822;2023-08-24T00:08:36;7.85;;;5.82;;
20365;SDS011;10341;49.894;8.822;2023-08-24T00:13:57;7.72;;;5.15;;
20365;SDS011;10341;49.894;8.822;2023-08-24T00:19:16;6.03;;;5.07;;
20365;SDS011;10341;49.894;8.822;2023-08-24T00:24:35;8.80;;;6.05;;
20365;SDS011;10341;49.894;8.822;2023-08-24T00:29:55;8.98;;;6.30;;
20365;SDS011;10341;49.894;8.822;2023-08-24T00:35:15;6.20;;;5.50;;
20365;SDS011;10341;49.894;8.822;2023-08-24T00:40:34;6.47;;;5.40;;
20365;SDS011;10341;49.894;8.822;2023-08-24T00:45:59;6.13;;;5.18;;
20365;SDS011;10341;49.894;8.822;2023-08-24T00:51:19;8.32;;;5.78;;
20365;SDS011;10341;49.894;8.822;2023-08-24T00:56:39;7.78;;;5.35;;
20365;SDS011;10341;49.894;8.822;2023-08-24T01:07:19;7.90;;;5.45;;
20365;SDS011;10341;49.894;8.822;2023-08-24T01:12:58;6.95;;;5.35;;
20365;SDS011;10341;49.894;8.822;2023-08-24T01:18:26;6.75;;;5.82;;
20365;SDS011;10341;49.894;8.822;2023-08-24T01:29:13;6.60;;;5.50;;
20365;SDS011;10341;49.894;8.822;2023-08-24T01:34:36;6.75;;;5.78;;
20365;SDS011;10341;49.894;8.822;2023-08-24T01:45:36;6.00;;;5.17;;
20365;SDS011;10341;49.894;8.822;2023-08-24T01:56:16;6.05;;;5.45;;
20365;SDS011;10341;49.894;8.822;2023-08-24T02:01:36;6.25;;;5.65;;
20365;SDS011;10341;49.894;8.822;2023-08-24T02:06:56;8.70;;;5.60;;
20365;SDS011;10341;49.894;8.822;2023-08-24T02:12:17;6.07;;;5.47;;
20365;SDS011;10341;49.894;8.822;2023-08-24T02:17:36;8.50;;;6.20;;
20365;SDS011;10341;49.894;8.822;2023-08-24T02:22:56;6.72;;;5.78;;
20365;SDS011;10341;49.894;8.822;2023-08-24T02:28:15;5.53;;;5.03;;
20365;SDS011;10341;49.894;8.822;2023-08-24T02:33:35;8.07;;;5.93;;
20365;SDS011;10341;49.894;8.822;2023-08-24T02:38:55;7.47;;;5.90;;
20365;SDS011;10341;49.894;8.822;2023-08-24T02:44:15;10.00;;;7.28;;
20365;SDS011;10341;49.894;8.822;2023-08-24T02:49:34;7.38;;;6.63;;
20365;SDS011;10341;49.894;8.822;2023-08-24T02:54:55;8.82;;;6.40;;
20365;SDS011;10341;49.894;8.822;2023-08-24T03:00:15;8.63;;;7.05;;
20365;SDS011;10341;49.894;8.822;2023-08-24T03:05:34;7.97;;;6.72;;
20365;SDS011;10341;49.894;8.822;2023-08-24T03:10:54;8.63;;;7.38;;
20365;SDS011;10341;49.894;8.822;2023-08-24T03:16:14;9.17;;;6.97;;
20365;SDS011;10341;49.894;8.822;2023-08-24T03:21:33;7.35;;;6.45;;
20365;SDS011;10341;49.894;8.822;2023-08-24T03:26:53;11.00;;;8.38;;
20365;SDS011;10341;49.894;8.822;2023-08-24T03:32:13;7.85;;;6.95;;
20365;SDS011;10341;49.894;8.822;2023-08-24T03:37:32;15.33;;;10.43;;
20365;SDS011;10341;49.894;8.822;2023-08-24T03:42:52;10.73;;;9.30;;
20365;SDS011;10341;49.894;8.822;2023-08-24T03:48:12;9.73;;;8.27;;
20365;SDS011;10341;49.894;8.822;2023-08-24T03:53:31;8.35;;;7.43;;
20365;SDS011;10341;49.894;8.822;2023-08-24T03:58:51;12.07;;;9.07;;
20365;SDS011;10341;49.894;8.822;2023-08-24T04:04:10;9.02;;;7.47;;
20365;SDS011;10341;49.894;8.822;2023-08-24T04:09:30;10.50;;;8.55;;
20365;SDS011;10341;49.894;8.822;2023-08-24T04:14:49;11.13;;;8.57;;
20365;SDS011;10341;49.894;8.822;2023-08-24T04:20:12;9.88;;;8.43;;
20365;SDS011;10341;49.894;8.822;2023-08-24T04:25:32;11.87;;;8.87;;
20365;SDS011;10341;49.894;8.822;2023-08-24T04:30:52;13.13;;;9.20;;
20365;SDS011;10341;49.894;8.822;2023-08-24T04:36:12;10.50;;;8.63;;
20365;SDS011;10341;49.894;8.822;2023-08-24T04:41:32;10.05;;;8.23;;
20365;SDS011;10341;49.894;8.822;2023-08-24T04:46:52;12.25;;;10.65;;
20365;SDS011;10341;49.894;8.822;2023-08-24T04:52:11;9.40;;;8.30;;
20365;SDS011;10341;49.894;8.822;2023-08-24T04:57:31;14.13;;;10.50;;
20365;SDS011;10341;49.894;8.822;2023-08-24T05:02:50;11.35;;;9.82;;
20365;SDS011;10341;49.894;8.822;2023-08-24T05:08:10;12.23;;;8.98;;
20365;SDS011;10341;49.894;8.822;2023-08-24T05:13:30;13.15;;;9.52;;
20365;SDS011;10341;49.894;8.822;2023-08-24T05:18:49;11.23;;;7.93;;
20365;SDS011;10341;49.894;8.822;2023-08-24T05:24:09;11.70;;;9.90;;
20365;SDS011;10341;49.894;8.822;2023-08-24T05:29:29;11.32;;;9.63;;
20365;SDS011;10341;49.894;8.822;2023-08-24T05:34:48;9.40;;;8.50;;
20365;SDS011;10341;49.894;8.822;2023-08-24T05:40:08;10.63;;;9.18;;
20365;SDS011;10341;49.894;8.822;2023-08-24T05:45:27;8.00;;;7.18;;
20365;SDS011;10341;49.894;8.822;2023-08-24T05:50:47;11.52;;;8.65;;
20365;SDS011;10341;49.894;8.822;2023-08-24T05:56:06;9.77;;;8.37;;
20365;SDS011;10341;49.894;8.822;2023-08-24T06:01:26;10.02;;;7.78;;
20365;SDS011;10341;49.894;8.822;2023-08-24T06:06:46;9.52;;;7.57;;
20365;SDS011;10341;49.894;8.822;2023-08-24T06:12:05;7.65;;;6.85;;
20365;SDS011;10341;49.894;8.822;2023-08-24T06:17:25;9.27;;;7.68;;
20365;SDS011;10341;49.894;8.822;2023-08-24T06:22:45;8.45;;;6.82;;
20365;SDS011;10341;49.894;8.822;2023-08-24T06:28:05;7.18;;;6.47;;
20365;SDS011;10341;49.894;8.822;2023-08-24T06:33:27;7.53;;;6.50;;
20365;SDS011;10341;49.894;8.822;2023-08-24T06:38:49;5.93;;;5.32;;
20365;SDS011;10341;49.894;8.822;2023-08-24T06:49:29;6.72;;;5.65;;
20365;SDS011;10341;49.894;8.822;2023-08-24T06:54:48;5.22;;;4.70;;
20365;SDS011;10341;49.894;8.822;2023-08-24T07:00:12;7.50;;;5.45;;
20365;SDS011;10341;49.894;8.822;2023-08-24T07:05:33;8.60;;;5.85;;
20365;SDS011;10341;49.894;8.822;2023-08-24T07:10:53;7.18;;;5.25;;
20365;SDS011;10341;49.894;8.822;2023-08-24T07:16:12;7.20;;;5.07;;
20365;SDS011;10341;49.894;8.822;2023-08-24T07:21:32;6.60;;;5.10;;
20365;SDS011;10341;49.894;8.822;2023-08-24T07:26:54;6.03;;;5.15;;
20365;SDS011;10341;49.894;8.822;2023-08-24T07:32:14;5.60;;;5.00;;
20365;SDS011;10341;49.894;8.822;2023-08-24T07:37:34;6.10;;;4.72;;
20365;SDS011;10341;49.894;8.822;2023-08-24T07:42:53;5.35;;;4.78;;
20365;SDS011;10341;49.894;8.822;2023-08-24T07:48:16;6.55;;;5.63;;
20365;SDS011;10341;49.894;8.822;2023-08-24T07:53:35;4.90;;;4.40;;
20365;SDS011;10341;49.894;8.822;2023-08-24T08:04:14;7.40;;;4.75;;
20365;SDS011;10341;49.894;8.822;2023-08-24T08:09:35;7.75;;;5.40;;
20365;SDS011;10341;49.894;8.822;2023-08-24T08:14:55;5.50;;;4.47;;
20365;SDS011;10341;49.894;8.822;2023-08-24T08:20:15;5.22;;;4.72;;
20365;SDS011;10341;49.894;8.822;2023-08-24T08:25:34;8.43;;;5.80;;
20365;SDS011;10341;49.894;8.822;2023-08-24T08:52:39;5.57;;;4.55;;
20365;SDS011;10341;49.894;8.822;2023-08-24T08:57:58;6.60;;;4.65;;
20365;SDS011;10341;49.894;8.822;2023-08-24T09:03:20;5.03;;;4.13;;
20365;SDS011;10341;49.894;8.822;2023-08-24T09:08:41;5.38;;;3.90;;
20365;SDS011;10341;49.894;8.822;2023-08-24T09:19:20;6.00;;;4.07;;
20365;SDS011;10341;49.894;8.822;2023-08-24T09:24:48;4.15;;;2.97;;
20365;SDS011;10341;49.894;8.822;2023-08-24T09:30:09;4.35;;;3.22;;
20365;SDS011;10341;49.894;8.822;2023-08-24T09:35:29;4.72;;;3.10;;
20365;SDS011;10341;49.894;8.822;2023-08-24T09:40:55;3.80;;;2.78;;
20365;SDS011;10341;49.894;8.822;2023-08-24T09:46:18;2.92;;;2.55;;
20365;SDS011;10341;49.894;8.822;2023-08-24T09:51:39;4.80;;;2.70;;
20365;SDS011;10341;49.894;8.822;2023-08-24T09:57:00;2.47;;;2.10;;
20365;SDS011;10341;49.894;8.822;2023-08-24T10:02:22;3.88;;;2.40;;
20365;SDS011;10341;49.894;8.822;2023-08-24T10:07:44;2.63;;;2.10;;
20365;SDS011;10341;49.894;8.822;2023-08-24T10:13:06;2.05;;;1.85;;
20365;SDS011;10341;49.894;8.822;2023-08-24T10:18:33;2.72;;;2.03;;
20365;SDS011;10341;49.894;8.822;2023-08-24T10:23:56;3.03;;;2.15;;
20365;SDS011;10341;49.894;8.822;2023-08-24T10:29:16;2.35;;;1.80;;
20365;SDS011;10341;49.894;8.822;2023-08-24T10:34:36;1.80;;;1.65;;
20365;SDS011;10341;49.894;8.822;2023-08-24T10:39:55;2.20;;;2.00;;
20365;SDS011;10341;49.894;8.822;2023-08-24T10:45:15;3.17;;;1.77;;
20365;SDS011;10341;49.894;8.822;2023-08-24T10:50:41;2.15;;;1.83;;
20365;SDS011;10341;49.894;8.822;2023-08-24T10:56:10;3.78;;;1.80;;
20365;SDS011;10341;49.894;8.822;2023-08-24T11:01:31;4.13;;;2.35;;
20365;SDS011;10341;49.894;8.822;2023-08-24T11:12:12;2.40;;;2.20;;
20365;SDS011;10341;49.894;8.822;2023-08-24T11:17:31;3.92;;;2.22;;
20365;SDS011;10341;49.894;8.822;2023-08-24T11:22:53;2.95;;;2.10;;
20365;SDS011;10341;49.894;8.822;2023-08-24T11:28:18;2.25;;;2.03;;
20365;SDS011;10341;49.894;8.822;2023-08-24T11:33:38;2.20;;;2.00;;
20365;SDS011;10341;49.894;8.822;2023-08-24T11:38:58;3.03;;;2.20;;
20365;SDS011;10341;49.894;8.822;2023-08-24T11:44:18;3.42;;;2.15;;
20365;SDS011;10341;49.894;8.822;2023-08-24T11:49:37;4.28;;;2.10;;
20365;SDS011;10341;49.894;8.822;2023-08-24T11:55:00;4.05;;;2.10;;
20365;SDS011;10341;49.894;8.822;2023-08-24T12:00:20;2.53;;;2.10;;
20365;SDS011;10341;49.894;8.822;2023-08-24T12:05:40;3.25;;;1.92;;
20365;SDS011;10341;49.894;8.822;2023-08-24T12:11:00;3.00;;;2.15;;
20365;SDS011;10341;49.894;8.822;2023-08-24T12:16:20;3.03;;;2.50;;
20365;SDS011;10341;49.894;8.822;2023-08-24T12:21:43;4.10;;;2.47;;
20365;SDS011;10341;49.894;8.822;2023-08-24T12:27:03;3.38;;;2.45;;
20365;SDS011;10341;49.894;8.822;2023-08-24T12:32:22;2.85;;;2.40;;
20365;SDS011;10341;49.894;8.822;2023-08-24T12:37:44;2.70;;;2.15;;
20365;SDS011;10341;49.894;8.822;2023-08-24T12:43:03;2.58;;;2.38;;
20365;SDS011;10341;49.894;8.822;2023-08-24T12:48:22;3.42;;;2.10;;
20365;SDS011;10341;49.894;8.822;2023-08-24T12:53:42;3.50;;;2.13;;
20365;SDS011;10341;49.894;8.822;2023-08-24T12:59:01;5.88;;;2.50;;
20365;SDS011;10341;49.894;8.822;2023-08-24T13:04:20;2.97;;;2.03;;
20365;SDS011;10341;49.894;8.822;2023-08-24T13:09:40;3.30;;;2.10;;
20365;SDS011;10341;49.894;8.822;2023-08-24T13:14:59;4.05;;;2.28;;
20365;SDS011;10341;49.894;8.822;2023-08-24T13:20:18;3.53;;;2.30;;
20365;SDS011;10341;49.894;8.822;2023-08-24T13:25:37;7.13;;;3.75;;
20365;SDS011;10341;49.894;8.822;2023-08-24T13:30:56;4.47;;;2.40;;
20365;SDS011;10341;49.894;8.822;2023-08-24T13:36:15;3.10;;;2.33;;
20365;SDS011;10341;49.894;8.822;2023-08-24T13:41:34;2.60;;;2.40;;
20365;SDS011;10341;49.894;8.822;2023-08-24T13:46:53;2.85;;;2.45;;
20365;SDS011;10341;49.894;8.822;2023-08-24T13:52:12;2.63;;;2.10;;
20365;SDS011;10341;49.894;8.822;2023-08-24T13:57:31;2.53;;;2.33;;
20365;SDS011;10341;49.894;8.822;2023-08-24T14:02:51;3.47;;;2.65;;
20365;SDS011;10341;49.894;8.822;2023-08-24T14:08:10;2.65;;;2.28;;
20365;SDS011;10341;49.894;8.822;2023-08-24T14:13:30;5.15;;;2.17;;
20365;SDS011;10341;49.894;8.822;2023-08-24T14:18:51;3.28;;;2.70;;
20365;SDS011;10341;49.894;8.822;2023-08-24T14:24:11;2.47;;;2.28;;
20365;SDS011;10341;49.894;8.822;2023-08-24T14:29:30;4.20;;;2.60;;
20365;SDS011;10341;49.894;8.822;2023-08-24T14:34:49;2.88;;;2.35;;
20365;SDS011;10341;49.894;8.822;2023-08-24T14:40:08;2.60;;;2.40;;
20365;SDS011;10341;49.894;8.822;2023-08-24T14:45:29;3.10;;;2.25;;
20365;SDS011;10341;49.894;8.822;2023-08-24T14:50:48;2.55;;;2.35;;
20365;SDS011;10341;49.894;8.822;2023-08-24T14:56:08;4.78;;;2.72;;
20365;SDS011;10341;49.894;8.822;2023-08-24T15:01:28;5.25;;;2.70;;
20365;SDS011;10341;49.894;8.822;2023-08-24T15:06:48;3.97;;;2.80;;
20365;SDS011;10341;49.894;8.822;2023-08-24T15:12:07;6.63;;;3.40;;
20365;SDS011;10341;49.894;8.822;2023-08-24T15:17:28;3.25;;;2.90;;
20365;SDS011;10341;49.894;8.822;2023-08-24T15:22:49;4.85;;;3.42;;
20365;SDS011;10341;49.894;8.822;2023-08-24T15:28:08;4.93;;;3.70;;
20365;SDS011;10341;49.894;8.822;2023-08-24T15:33:27;4.57;;;3.70;;
20365;SDS011;10341;49.894;8.822;2023-08-24T15:38:46;6.93;;;4.20;;
20365;SDS011;10341;49.894;8.822;2023-08-24T15:44:06;6.10;;;4.63;;
20365;SDS011;10341;49.894;8.822;2023-08-24T15:49:25;5.70;;;4.30;;
20365;SDS011;10341;49.894;8.822;2023-08-24T16:00:04;6.88;;;3.80;;
20365;SDS011;10341;49.894;8.822;2023-08-24T16:05:32;3.83;;;3.45;;
20365;SDS011;10341;49.894;8.822;2023-08-24T16:10:56;4.25;;;3.70;;
20365;SDS011;10341;49.894;8.822;2023-08-24T16:16:16;3.88;;;3.33;;
20365;SDS011;10341;49.894;8.822;2023-08-24T16:21:34;6.97;;;4.27;;
20365;SDS011;10341;49.894;8.822;2023-08-24T16:26:53;4.90;;;3.57;;
20365;SDS011;10341;49.894;8.822;2023-08-24T16:32:13;8.38;;;3.78;;
20365;SDS011;10341;49.894;8.822;2023-08-24T16:37:32;4.97;;;3.93;;
20365;SDS011;10341;49.894;8.822;2023-08-24T16:42:51;6.28;;;3.85;;
20365;SDS011;10341;49.894;8.822;2023-08-24T16:48:10;5.60;;;3.60;;
20365;SDS011;10341;49.894;8.822;2023-08-24T16:53:30;5.80;;;3.92;;
20365;SDS011;10341;49.894;8.822;2023-08-24T16:58:50;5.10;;;4.32;;
20365;SDS011;10341;49.894;8.822;2023-08-24T17:04:09;4.93;;;4.43;;
20365;SDS011;10341;49.894;8.822;2023-08-24T17:09:28;6.40;;;4.47;;
20365;SDS011;10341;49.894;8.822;2023-08-24T17:14:47;5.77;;;4.83;;
20365;SDS011;10341;49.894;8.822;2023-08-24T17:20:07;5.47;;;4.23;;
20365;SDS011;10341;49.894;8.822;2023-08-24T17:25:26;7.18;;;4.85;;
20365;SDS011;10341;49.894;8.822;2023-08-24T17:30:46;6.00;;;4.68;;
20365;SDS011;10341;49.894;8.822;2023-08-24T17:36:08;6.95;;;4.85;;
20365;SDS011;10341;49.894;8.822;2023-08-24T17:41:27;6.83;;;5.70;;
20365;SDS011;10341;49.894;8.822;2023-08-24T17:46:46;7.37;;;5.03;;
20365;SDS011;10341;49.894;8.822;2023-08-24T17:52:05;10.18;;;6.13;;
20365;SDS011;10341;49.894;8.822;2023-08-24T17:57:24;12.27;;;6.28;;
20365;SDS011;10341;49.894;8.822;2023-08-24T18:02:44;9.20;;;6.07;;
20365;SDS011;10341;49.894;8.822;2023-08-24T18:08:03;11.73;;;6.33;;
20365;SDS011;10341;49.894;8.822;2023-08-24T18:13:23;9.27;;;6.82;;
20365;SDS011;10341;49.894;8.822;2023-08-24T18:18:42;8.90;;;6.70;;
20365;SDS011;10341;49.894;8.822;2023-08-24T18:24:01;15.07;;;7.93;;
20365;SDS011;10341;49.894;8.822;2023-08-24T18:29:21;11.82;;;7.95;;
20365;SDS011;10341;49.894;8.822;2023-08-24T18:34:40;11.88;;;8.45;;
20365;SDS011;10341;49.894;8.822;2023-08-24T18:40:00;13.00;;;8.75;;
20365;SDS011;10341;49.894;8.822;2023-08-24T18:45:19;13.30;;;9.10;;
20365;SDS011;10341;49.894;8.822;2023-08-24T18:50:40;13.75;;;8.60;;
20365;SDS011;10341;49.894;8.822;2023-08-24T18:55:59;11.93;;;8.73;;
20365;SDS011;10341;49.894;8.822;2023-08-24T19:01:19;11.50;;;8.45;;
20365;SDS011;10341;49.894;8.822;2023-08-24T19:06:38;9.13;;;7.80;;
20365;SDS011;10341;49.894;8.822;2023-08-24T19:11:57;11.02;;;8.35;;
20365;SDS011;10341;49.894;8.822;2023-08-24T19:17:17;13.27;;;10.02;;
20365;SDS011;10341;49.894;8.822;2023-08-24T19:22:36;10.57;;;7.33;;
20365;SDS011;10341;49.894;8.822;2023-08-24T19:27:56;13.48;;;8.25;;
20365;SDS011;10341;49.894;8.822;2023-08-24T19:33:15;8.87;;;7.37;;
20365;SDS011;10341;49.894;8.822;2023-08-24T19:38:34;9.40;;;6.97;;
20365;SDS011;10341;49.894;8.822;2023-08-24T19:43:54;15.20;;;10.30;;
20365;SDS011;10341;49.894;8.822;2023-08-24T19:49:13;14.23;;;10.07;;
20365;SDS011;10341;49.894;8.822;2023-08-24T19:54:33;14.32;;;10.25;;
20365;SDS011;10341;49.894;8.822;2023-08-24T19:59:52;13.27;;;10.10;;
20365;SDS011;10341;49.894;8.822;2023-08-24T20:05:11;10.40;;;8.50;;
20365;SDS011;10341;49.894;8.822;2023-08-24T20:10:30;10.07;;;8.52;;
20365;SDS011;10341;49.894;8.822;2023-08-24T20:15:49;14.30;;;9.32;;
20365;SDS011;10341;49.894;8.822;2023-08-24T20:21:08;8.60;;;7.43;;
20365;SDS011;10341;49.894;8.822;2023-08-24T20:26:29;10.73;;;9.25;;
20365;SDS011;10341;49.894;8.822;2023-08-24T20:31:48;9.13;;;8.15;;
20365;SDS011;10341;49.894;8.822;2023-08-24T20:37:06;8.43;;;7.53;;
20365;SDS011;10341;49.894;8.822;2023-08-24T20:42:25;11.45;;;7.47;;
20365;SDS011;10341;49.894;8.822;2023-08-24T20:53:05;19.23;;;12.50;;
20365;SDS011;10341;49.894;8.822;2023-08-24T21:03:45;12.50;;;10.38;;
20365;SDS011;10341;49.894;8.822;2023-08-24T21:09:04;11.80;;;9.88;;
20365;SDS011;10341;49.894;8.822;2023-08-24T21:14:24;12.45;;;9.40;;
20365;SDS011;10341;49.894;8.822;2023-08-24T21:19:43;13.73;;;10.30;;
20365;SDS011;10341;49.894;8.822;2023-08-24T21:25:03;19.58;;;14.13;;
20365;SDS011;10341;49.894;8.822;2023-08-24T21:30:24;19.98;;;14.63;;
20365;SDS011;10341;49.894;8.822;2023-08-24T21:35:43;18.27;;;14.03;;
20365;SDS011;10341;49.894;8.822;2023-08-24T21:41:03;19.55;;;14.52;;
20365;SDS011;10341;49.894;8.822;2023-08-24T21:46:23;13.93;;;11.15;;
20365;SDS011;10341;49.894;8.822;2023-08-24T21:51:42;14.27;;;10.97;;
20365;SDS011;10341;49.894;8.822;2023-08-24T21:57:01;16.65;;;12.70;;
20365;SDS011;10341;49.894;8.822;2023-08-24T22:02:21;20.33;;;14.95;;
20365;SDS011;10341;49.894;8.822;2023-08-24T22:07:40;20.95;;;15.48;;
20365;SDS011;10341;49.894;8.822;2023-08-24T22:12:59;25.77;;;16.67;;
20365;SDS011;10341;49.894;8.822;2023-08-24T22:18:19;17.70;;;12.30;;
20365;SDS011;10341;49.894;8.822;2023-08-24T22:23:39;17.73;;;12.70;;
20365;SDS011;10341;49.894;8.822;2023-08-24T22:28:58;19.98;;;12.50;;
20365;SDS011;10341;49.894;8.822;2023-08-24T22:34:18;21.10;;;15.83;;
20365;SDS011;10341;49.894;8.822;2023-08-24T22:39:38;15.07;;;10.43;;
20365;SDS011;10341;49.894;8.822;2023-08-24T22:44:57;11.95;;;9.57;;
20365;SDS011;10341;49.894;8.822;2023-08-24T22:50:16;11.65;;;9.55;;
20365;SDS011;10341;49.894;8.822;2023-08-24T22:55:36;17.23;;;13.38;;
20365;SDS011;10341;49.894;8.822;2023-08-24T23:00:55;20.13;;;15.02;;
20365;SDS011;10341;49.894;8.822;2023-08-24T23:06:15;18.17;;;13.73;;
20365;SDS011;10341;49.894;8.822;2023-08-24T23:11:38;13.13;;;10.30;;
20365;SDS011;10341;49.894;8.822;2023-08-24T23:16:57;12.50;;;10.27;;
20365;SDS011;10341;49.894;8.822;2023-08-24T23:22:16;11.05;;;8.85;;
20365;SDS011;10341;49.894;8.822;2023-08-24T23:27:35;10.68;;;8.57;;
20365;SDS011;10341;49.894;8.822;2023-08-24T23:32:54;11.13;;;8.43;;
20365;SDS011;10341;49.894;8.822;2023-08-24T23:38:14;10.10;;;8.18;;
20365;SDS011;10341;49.894;8.822;2023-08-24T23:43:33;10.43;;;8.73;;
20365;SDS011;10341;49.894;8.822;2023-08-24T23:48:53;12.00;;;9.33;;
20365;SDS011;10341;49.894;8.822;2023-08-24T23:54:13;11.13;;;8.65;;
20365;SDS011;10341;49.894;8.822;2023-08-24T23:59:32;20.87;;;15.13;;
